Terminal Aerodrome Forecast
Issued by NWS

Home | Current Version | Previous Version | Text Only | Print | Product List | Glossary On
Versions: 1 2 3 4 5 6 7 8 9 10 11 12 13 14 15 16 17 18 19 20 21 22 23 24 25
000
FTUS44 KHGX 290559
TAFCXO
TAF
KCXO 290559Z 2906/3006 12003KT P6SM FEW040
      TEMPO 2906/2908 BKN025
     FM291000 VRB03KT 3SM BR BKN006
     FM291330 VRB04KT P6SM SCT006 BKN015
     FM291600 19007KT P6SM SCT015 SCT035
     FM300100 15008KT P6SM SCT040=

USA.gov is the U.S. government's official web portal to all federal, state and local government web resources and services.